createdAt,value
2022-11-24T00:00:34.203Z,99026.97
2022-11-24T00:05:38.488Z,99093.09
2022-11-24T00:10:40.045Z,99009.13
2022-11-24T00:15:41.575Z,99022.72
2022-11-24T00:20:43.129Z,99090.63
2022-11-24T00:25:44.668Z,99041.06
2022-11-24T00:30:46.380Z,99095.13
2022-11-24T00:35:57.520Z,99010.63
2022-11-24T00:40:59.075Z,99054.94
2022-11-24T00:46:00.942Z,99035.66
2022-11-24T00:51:05.804Z,99104.41
2022-11-24T00:56:08.778Z,99075.38
2022-11-24T01:01:17.631Z,99080.28
2022-11-24T01:06:21.356Z,99114.69
2022-11-24T01:11:25.792Z,99133.81
2022-11-24T01:16:34.346Z,99136.38
2022-11-24T01:21:36.011Z,99153.97
2022-11-24T01:26:37.888Z,99152.47
2022-11-24T01:31:39.581Z,99157.69
2022-11-24T01:36:41.260Z,99183.09
2022-11-24T01:41:42.885Z,99181.16
2022-11-24T01:46:47.992Z,99196.91
2022-11-24T01:51:58.874Z,99176.22
2022-11-24T01:57:11.272Z,99172.88
2022-11-24T02:02:14.168Z,99173.66
2022-11-24T02:07:15.976Z,99195.97
2022-11-24T02:12:17.672Z,99158.25
2022-11-24T02:17:19.233Z,99184.09
2022-11-24T02:22:37.159Z,99178.84
2022-11-24T02:27:38.732Z,99170.41
2022-11-24T02:32:42.131Z,99187.78
2022-11-24T02:37:43.770Z,99213.06
2022-11-24T02:42:47.107Z,99187.28
2022-11-24T02:47:48.768Z,99195.31
2022-11-24T02:52:50.405Z,99209.91
2022-11-24T02:57:51.957Z,99219.00
2022-11-24T03:02:53.581Z,99203.44
2022-11-24T03:07:55.317Z,99211.50
2022-11-24T03:12:56.898Z,99185.13
2022-11-24T03:17:58.529Z,99213.59
2022-11-24T03:23:00.086Z,99189.50
2022-11-24T03:28:01.771Z,99182.41
2022-11-24T03:33:05.059Z,99214.97
2022-11-24T03:38:06.648Z,99154.56
2022-11-24T03:43:08.265Z,99197.16
2022-11-24T03:48:09.927Z,99183.31
2022-11-24T03:53:11.499Z,99168.03
2022-11-24T03:58:13.055Z,99187.53
2022-11-24T04:03:14.752Z,99202.66
2022-11-24T04:08:16.854Z,99195.84
2022-11-24T04:13:21.292Z,99249.19
2022-11-24T04:18:22.887Z,99243.94
2022-11-24T04:23:24.656Z,99191.41
2022-11-24T04:28:27.311Z,99186.81
2022-11-24T04:33:28.910Z,99201.41
2022-11-24T04:39:23.203Z,99235.56
2022-11-24T04:43:52.073Z,99232.88
2022-11-24T04:48:53.630Z,99198.28
2022-11-24T04:53:55.203Z,99257.03
2022-11-24T04:58:56.915Z,99239.16
2022-11-24T05:05:11.638Z,99230.28
2022-11-24T05:10:31.778Z,99217.97
2022-11-24T05:15:33.715Z,99256.56
2022-11-24T05:20:36.582Z,99223.25
2022-11-24T05:25:40.543Z,99226.00
2022-11-24T05:30:45.786Z,99221.88
2022-11-24T05:35:49.101Z,99227.22
2022-11-24T05:40:50.738Z,99241.97
2022-11-24T05:45:52.322Z,99259.84
2022-11-24T05:50:58.912Z,99290.06
2022-11-24T05:56:03.835Z,99291.97
2022-11-24T06:01:07.034Z,99297.09
2022-11-24T06:06:08.682Z,99306.59
2022-11-24T06:11:19.537Z,99334.78
2022-11-24T06:16:21.274Z,99325.66
2022-11-24T06:21:22.887Z,99347.59
2022-11-24T06:26:24.574Z,99330.38
2022-11-24T06:31:26.296Z,99337.16
2022-11-24T06:36:28.116Z,99323.56
2022-11-24T06:41:29.930Z,99350.00
2022-11-24T06:46:31.751Z,99349.44
2022-11-24T06:51:33.408Z,99323.97
2022-11-24T06:56:35.387Z,99341.56
2022-11-24T07:01:37.024Z,99334.06
2022-11-24T07:06:41.299Z,99330.25
2022-11-24T07:11:43.122Z,99352.88
2022-11-24T07:16:44.718Z,99350.53
2022-11-24T07:21:46.310Z,99368.91
2022-11-24T07:26:47.948Z,99403.94
2022-11-24T07:31:50.092Z,99406.94
2022-11-24T07:36:51.866Z,99423.88
2022-11-24T07:41:53.475Z,99417.78
2022-11-24T07:46:55.198Z,99436.28
2022-11-24T07:51:56.832Z,99457.09
2022-11-24T07:56:58.470Z,99473.84
2022-11-24T08:02:00.109Z,99450.91
2022-11-24T08:07:02.674Z,99485.00
2022-11-24T08:12:04.436Z,99482.47
2022-11-24T08:17:06.072Z,99501.84
2022-11-24T08:22:07.680Z,99515.72
2022-11-24T08:27:09.235Z,99534.44
2022-11-24T08:32:14.139Z,99555.34
2022-11-24T08:37:19.166Z,99566.09
2022-11-24T08:42:20.806Z,99569.81
2022-11-24T08:47:22.859Z,99580.16
2022-11-24T08:52:24.459Z,99597.69
2022-11-24T08:57:26.160Z,99613.94
2022-11-24T09:02:27.734Z,99630.91
2022-11-24T09:07:29.428Z,99640.09
2022-11-24T09:12:31.093Z,99661.34
2022-11-24T09:17:32.922Z,99668.53
2022-11-24T09:22:35.618Z,99653.13
2022-11-24T09:27:37.328Z,99692.97
2022-11-24T09:32:38.878Z,99705.94
2022-11-24T09:37:40.444Z,99709.69
2022-11-24T09:43:03.742Z,99676.41
2022-11-24T09:48:22.717Z,99676.78
2022-11-24T09:53:27.007Z,99682.94
2022-11-24T09:58:35.864Z,99682.06
2022-11-24T10:03:43.404Z,99683.16
2022-11-24T10:09:03.299Z,99680.66
2022-11-24T10:14:23.215Z,99665.31
2022-11-24T10:19:50.882Z,99661.97
2022-11-24T10:25:01.362Z,99648.00
2022-11-24T10:30:12.091Z,99669.88
2022-11-24T10:35:22.499Z,99708.44
2022-11-24T10:40:56.556Z,99686.19
2022-11-24T10:46:27.310Z,99691.09
2022-11-24T10:51:35.024Z,99672.19
2022-11-24T10:56:41.396Z,99692.59
2022-11-24T11:06:14.702Z,99660.50
2022-11-24T11:11:28.439Z,99637.41
2022-11-24T11:16:41.267Z,99667.41
2022-11-24T11:21:43.001Z,99621.78
2022-11-24T11:26:44.948Z,99632.06
2022-11-24T11:37:30.999Z,99636.78
2022-11-24T11:43:01.457Z,99652.63
2022-11-24T11:48:03.478Z,99656.84
2022-11-24T11:53:17.252Z,99654.28
2022-11-24T11:59:02.219Z,99654.88
2022-11-24T12:04:33.662Z,99662.00
2022-11-24T12:09:41.650Z,99686.56
2022-11-24T12:15:05.880Z,99681.63
2022-11-24T12:20:36.010Z,99684.50
2022-11-24T12:25:55.786Z,99715.06
2022-11-24T12:30:57.580Z,99742.25
2022-11-24T12:36:28.132Z,99734.56
2022-11-24T12:41:48.019Z,99721.09
2022-11-24T12:46:58.470Z,99732.22
2022-11-24T12:52:05.453Z,99758.88
2022-11-24T12:57:25.283Z,99756.69
2022-11-24T13:03:14.985Z,99734.03
2022-11-24T13:08:16.709Z,99762.78
2022-11-24T13:13:18.454Z,99740.78
2022-11-24T13:18:42.175Z,99764.16
2022-11-24T13:23:55.255Z,99752.84
2022-11-24T13:29:05.825Z,99738.63
2022-11-24T13:34:55.067Z,99739.22
2022-11-24T13:40:01.111Z,99749.84
2022-11-24T13:45:05.882Z,99722.38
2022-11-24T13:50:23.841Z,99729.34
2022-11-24T13:55:32.694Z,99728.66
2022-11-24T14:00:58.125Z,99721.03
2022-11-24T14:06:02.275Z,99732.91
2022-11-24T14:11:13.354Z,99728.75
2022-11-24T14:16:18.248Z,99719.53
2022-11-24T14:21:30.316Z,99739.06
2022-11-24T14:26:35.587Z,99717.97
2022-11-24T14:31:37.281Z,99711.75
2022-11-24T14:36:39.849Z,99715.28
2022-11-24T14:41:44.009Z,99710.88
2022-11-24T14:46:46.061Z,99722.63
2022-11-24T14:51:55.497Z,99716.94
2022-11-24T14:57:05.456Z,99700.09
2022-11-24T15:02:44.744Z,99711.72
2022-11-24T15:07:48.203Z,99709.91
2022-11-24T15:12:54.623Z,99706.66
2022-11-24T15:18:01.110Z,99718.03
2022-11-24T15:23:25.706Z,99700.97
2022-11-24T15:28:27.486Z,99727.91
2022-11-24T15:33:29.769Z,99742.53
2022-11-24T15:38:31.590Z,99713.69
2022-11-24T15:43:41.050Z,99748.63
2022-11-24T15:48:42.758Z,99727.44
2022-11-24T15:53:51.163Z,99675.47
2022-11-24T15:58:54.344Z,99708.06
2022-11-24T16:03:56.021Z,99722.94
2022-11-24T16:08:58.383Z,99639.06
2022-11-24T16:14:00.080Z,99701.25
2022-11-24T16:19:01.831Z,99717.84
2022-11-24T16:24:03.631Z,99665.81
2022-11-24T16:29:05.306Z,99680.88
2022-11-24T16:34:08.024Z,99687.69
2022-11-24T16:39:09.637Z,99727.94
2022-11-24T16:44:11.288Z,99705.19
2022-11-24T16:49:12.983Z,99748.09
2022-11-24T16:54:14.561Z,99666.31
2022-11-24T16:59:16.208Z,99736.25
2022-11-24T17:04:17.996Z,99754.09
2022-11-24T17:09:19.675Z,99744.75
2022-11-24T17:14:21.360Z,99728.63
2022-11-24T17:19:23.098Z,99664.75
2022-11-24T17:24:24.804Z,99649.13
2022-11-24T17:29:26.512Z,99666.91
2022-11-24T17:34:28.305Z,99674.19
2022-11-24T17:39:30.003Z,99732.41
2022-11-24T17:44:32.011Z,99701.06
2022-11-24T17:49:34.060Z,99733.03
2022-11-24T17:54:51.002Z,99714.28
2022-11-24T17:59:53.236Z,99755.56
2022-11-24T18:04:55.987Z,99691.59
2022-11-24T18:09:57.792Z,99738.97
2022-11-24T18:14:59.884Z,99676.53
2022-11-24T18:20:01.575Z,99683.16
2022-11-24T18:25:03.415Z,99701.13
2022-11-24T18:30:06.114Z,99693.78
2022-11-24T18:35:08.230Z,99676.13
2022-11-24T18:40:10.251Z,99649.25
2022-11-24T18:45:11.929Z,99565.47
2022-11-24T18:50:13.622Z,99682.88
2022-11-24T18:55:15.629Z,99670.13
2022-11-24T19:00:17.968Z,99614.22
2022-11-24T19:05:20.303Z,99594.13
2022-11-24T19:10:22.004Z,99651.25
2022-11-24T19:15:23.742Z,99658.69
2022-11-24T19:20:25.362Z,99635.56
2022-11-24T19:25:27.127Z,99655.25
2022-11-24T19:30:29.317Z,99632.50
2022-11-24T19:35:30.907Z,99667.84
2022-11-24T19:40:32.466Z,99604.59
2022-11-24T19:45:34.075Z,99597.97
2022-11-24T19:50:35.699Z,99590.16
2022-11-24T19:55:37.412Z,99562.78
2022-11-24T20:00:39.054Z,99547.63
2022-11-24T20:05:40.615Z,99618.97
2022-11-24T20:10:42.516Z,99627.94
2022-11-24T20:15:44.238Z,99619.31
2022-11-24T20:20:45.854Z,99608.03
2022-11-24T20:25:47.415Z,99595.50
2022-11-24T20:30:50.206Z,99610.97
2022-11-24T20:35:51.798Z,99580.91
2022-11-24T20:40:53.358Z,99583.69
2022-11-24T20:46:02.655Z,99617.03
2022-11-24T20:51:07.339Z,99593.38
2022-11-24T20:56:15.292Z,99593.19
2022-11-24T21:01:25.819Z,99599.13
2022-11-24T21:06:28.367Z,99588.66
2022-11-24T21:11:30.655Z,99593.97
2022-11-24T21:16:40.721Z,99569.22
2022-11-24T21:21:42.821Z,99579.09
2022-11-24T21:26:51.224Z,99590.81
2022-11-24T21:31:53.050Z,99602.84
2022-11-24T21:36:54.702Z,99604.78
2022-11-24T21:41:56.408Z,99613.22
2022-11-24T21:46:58.066Z,99599.22
2022-11-24T21:51:59.716Z,99539.63
2022-11-24T21:57:01.328Z,99588.00
2022-11-24T22:02:02.958Z,99565.72
2022-11-24T22:07:04.506Z,99564.22
2022-11-24T22:12:06.321Z,99596.84
2022-11-24T22:17:08.505Z,99600.78
2022-11-24T22:22:10.185Z,99602.84
2022-11-24T22:27:11.874Z,99640.94
2022-11-24T22:32:13.506Z,99636.22
2022-11-24T22:37:15.121Z,99610.38
2022-11-24T22:42:16.771Z,99656.84
2022-11-24T22:47:18.498Z,99604.28
2022-11-24T22:52:20.149Z,99623.16
2022-11-24T22:57:21.811Z,99622.47
2022-11-24T23:02:23.394Z,99595.19
2022-11-24T23:07:25.055Z,99645.00
2022-11-24T23:12:26.760Z,99645.59
2022-11-24T23:17:28.379Z,99667.63
2022-11-24T23:22:30.022Z,99682.63
2022-11-24T23:27:31.683Z,99620.22
2022-11-24T23:32:33.288Z,99656.03
2022-11-24T23:37:59.944Z,99610.13
2022-11-24T23:42:57.341Z,99620.25
2022-11-24T23:47:59.103Z,99630.84
2022-11-24T23:53:00.775Z,99630.75
2022-11-24T23:58:02.442Z,99611.78
